Port Hardy Airport
CYZT : rendu visible

Aérodrome :











RETROUVEZ-NOUS SUR...

 
LOGIN :

S'inscrire | Disclaimer

   EN    FR    IT 

 









Légende :    VFR   VFR Marginal   IFR   IFR Intensif   IFR Très Intensif
Visi : 
Plafond : 
>= 8 km
>= 3000ft
5 à 8 km
1000 à 3000 ft
1500m à 5 km
500 à 1000 ft
800 à 1500m
200 à 500 ft
< 800m
< 200 ft
Symboles :   Orages  Brouillard  Fortes neiges  Fortes précipitations  Vent > 20 kt






- Altitude de l'aérodrome : 71 ft
- Code IATA : YZT


CYZT - Port Hardy

DERNIER METAR :
  • 062300Z 35009KT 20SM SCT030 BKN046 BKN075 08/03 A3002 RMK CU3SC2AC2 SLP169

METARs EXPIRÉS :
  • 062200Z 01008KT 20SM FEW040 BKN077 BKN250 09/04 A3001 RMK CU2AC4CS1 SLP165
  • 062100Z CCA 01006KT 20SM FEW040 BKN072 BKN250 08/03 A3001 RMK SC2AC4CS1 OBS TAKEN +8 SLP165

TAF TAF CYZT
Valide du 06 à 19h jusqu'au 07 à 07h UTC


061838Z 0619/0707 30005KT P6SM FEW020 FEW040 BKN080
FM062100 31007KT P6SM SCT020 BKN040
TEMPO 0621/0707 P6SM -SHRA BKN020 OVC040
BECMG 0701/0703 26005KT RMK NXT FCST BY 070100Z



MET'MAP, la Météo Aéronautique d'un coup d'oeil ! - Copyright ORBIFLY Décembre 2007 - Disclaimer

ORBIFLY MET'MAP TEAM :

Programmation & Développement : Alexandra Zaïnal
Sur une idée originale de : Baudouin d'Aumeries
Assistance à la programmation : Marc-Olivier Méhu
Soutien technique & logistique : Manuel Goepfert

Contact : metmap@orbifly.com




SOURCES & CREDITS :

   NOAA       Earth
Advisory